createdAt,value
2022-10-15T00:02:11.749Z,9.70
2022-10-15T00:04:38.549Z,9.73
2022-10-15T00:07:05.739Z,9.76
2022-10-15T00:09:32.568Z,9.84
2022-10-15T00:11:59.341Z,9.61
2022-10-15T00:14:26.230Z,9.63
2022-10-15T00:16:53.029Z,9.67
2022-10-15T00:19:19.898Z,9.71
2022-10-15T00:21:46.823Z,9.63
2022-10-15T00:24:13.597Z,9.57
2022-10-15T00:26:40.414Z,9.50
2022-10-15T00:29:07.344Z,9.45
2022-10-15T00:31:34.240Z,9.43
2022-10-15T00:34:01.945Z,9.44
2022-10-15T00:36:31.382Z,9.46
2022-10-15T00:38:58.697Z,9.44
2022-10-15T00:41:32.058Z,9.50
2022-10-15T00:44:01.317Z,9.47
2022-10-15T00:46:41.768Z,9.28
2022-10-15T00:49:24.108Z,9.30
2022-10-15T00:52:19.588Z,9.23
2022-10-15T00:55:05.447Z,9.19
2022-10-15T00:57:33.528Z,9.16
2022-10-15T01:00:07.317Z,9.16
2022-10-15T01:02:34.148Z,9.16
2022-10-15T01:05:01.335Z,9.06
2022-10-15T01:07:28.180Z,9.15
2022-10-15T01:09:55.260Z,9.23
2022-10-15T01:12:45.028Z,9.11
2022-10-15T01:15:28.868Z,8.99
2022-10-15T01:18:10.277Z,9.04
2022-10-15T01:21:07.100Z,9.03
2022-10-15T01:23:52.017Z,9.02
2022-10-15T01:27:02.427Z,9.10
2022-10-15T01:29:53.606Z,9.12
2022-10-15T01:32:27.238Z,9.07
2022-10-15T01:35:02.807Z,9.07
2022-10-15T01:37:41.328Z,9.01
2022-10-15T01:40:22.736Z,8.91
2022-10-15T01:42:58.338Z,8.97
2022-10-15T01:45:42.625Z,8.94
2022-10-15T01:48:11.918Z,8.95
2022-10-15T01:50:44.241Z,8.86
2022-10-15T01:53:15.328Z,8.80
2022-10-15T01:55:45.477Z,8.81
2022-10-15T01:58:15.458Z,8.85
2022-10-15T02:00:43.346Z,8.79
2022-10-15T02:03:10.167Z,8.74
2022-10-15T02:05:45.419Z,8.68
2022-10-15T02:08:20.348Z,8.73
2022-10-15T02:11:08.028Z,8.63
2022-10-15T02:13:53.378Z,8.70
2022-10-15T02:16:30.697Z,8.65
2022-10-15T02:19:27.047Z,8.67
2022-10-15T02:22:02.277Z,8.70
2022-10-15T02:24:35.997Z,8.60
2022-10-15T02:27:04.672Z,8.57
2022-10-15T02:29:35.110Z,8.56
2022-10-15T02:32:06.240Z,8.65
2022-10-15T02:34:34.438Z,8.58
2022-10-15T02:37:04.070Z,8.67
2022-10-15T02:39:31.277Z,8.58
2022-10-15T02:41:58.467Z,8.54
2022-10-15T02:44:25.323Z,8.69
2022-10-15T02:46:52.135Z,8.65
2022-10-15T02:49:19.034Z,8.67
2022-10-15T02:51:45.807Z,8.61
2022-10-15T02:54:12.635Z,8.65
2022-10-15T02:56:39.939Z,8.62
2022-10-15T02:59:07.387Z,8.61
2022-10-15T03:01:35.187Z,8.59
2022-10-15T03:04:02.527Z,8.56
2022-10-15T03:06:30.076Z,8.49
2022-10-15T03:08:57.043Z,8.50
2022-10-15T03:11:23.915Z,8.63
2022-10-15T03:13:50.718Z,8.63
2022-10-15T03:16:17.949Z,8.61
2022-10-15T03:19:03.388Z,8.68
2022-10-15T03:21:31.291Z,8.70
2022-10-15T03:23:59.379Z,8.65
2022-10-15T03:26:26.617Z,8.58
2022-10-15T03:28:53.522Z,8.63
2022-10-15T03:31:20.677Z,8.62
2022-10-15T03:33:47.726Z,8.62
2022-10-15T03:36:14.557Z,8.57
2022-10-15T03:38:41.400Z,8.47
2022-10-15T03:41:08.276Z,8.40
2022-10-15T03:43:37.511Z,8.46
2022-10-15T03:46:07.328Z,8.31
2022-10-15T03:48:34.269Z,8.29
2022-10-15T03:51:01.108Z,8.29
2022-10-15T03:53:27.960Z,8.34
2022-10-15T03:55:54.880Z,8.17
2022-10-15T03:58:21.768Z,8.22
2022-10-15T04:00:48.586Z,8.23
2022-10-15T04:03:15.518Z,8.35
2022-10-15T04:05:42.358Z,8.38
2022-10-15T04:08:09.158Z,8.29
2022-10-15T04:10:36.088Z,8.43
2022-10-15T04:13:02.888Z,8.42
2022-10-15T04:15:29.747Z,8.37
2022-10-15T04:17:56.789Z,8.41
2022-10-15T04:20:23.747Z,8.25
2022-10-15T04:22:50.588Z,8.29
2022-10-15T04:25:17.628Z,8.18
2022-10-15T04:27:44.417Z,8.21
2022-10-15T04:30:12.068Z,8.04
2022-10-15T04:32:39.011Z,8.02
2022-10-15T04:35:06.308Z,7.99
2022-10-15T04:37:34.439Z,7.93
2022-10-15T04:40:01.410Z,7.88
2022-10-15T04:42:31.654Z,7.92
2022-10-15T04:44:58.517Z,7.89
2022-10-15T04:47:25.922Z,8.06
2022-10-15T04:49:53.008Z,8.33
2022-10-15T04:52:20.261Z,8.23
2022-10-15T04:54:47.108Z,8.15
2022-10-15T04:57:13.963Z,8.27
2022-10-15T04:59:41.109Z,8.16
2022-10-15T05:02:08.476Z,8.39
2022-10-15T05:04:35.393Z,8.46
2022-10-15T05:07:02.378Z,8.31
2022-10-15T05:09:29.300Z,8.49
2022-10-15T05:11:56.148Z,8.93
2022-10-15T05:14:23.336Z,9.10
2022-10-15T05:16:50.148Z,9.62
2022-10-15T05:19:17.912Z,9.94
2022-10-15T05:21:44.830Z,10.42
2022-10-15T05:24:12.035Z,10.93
2022-10-15T05:26:38.948Z,11.22
2022-10-15T05:29:05.779Z,11.80
2022-10-15T05:31:34.132Z,12.16
2022-10-15T05:34:07.261Z,12.63
2022-10-15T05:36:34.301Z,13.02
2022-10-15T05:39:03.985Z,13.27
2022-10-15T05:41:31.226Z,13.86
2022-10-15T05:44:16.896Z,13.93
2022-10-15T05:46:43.716Z,14.66
2022-10-15T05:49:10.493Z,14.32
2022-10-15T05:51:38.091Z,15.15
2022-10-15T05:54:05.032Z,15.09
2022-10-15T05:56:31.817Z,15.59
2022-10-15T05:58:58.954Z,16.16
2022-10-15T06:01:25.771Z,16.94
2022-10-15T06:03:52.744Z,17.17
2022-10-15T06:06:22.551Z,17.69
2022-10-15T06:08:50.544Z,18.35
2022-10-15T06:11:18.281Z,19.01
2022-10-15T06:13:46.012Z,19.11
2022-10-15T06:16:17.900Z,19.28
2022-10-15T06:18:47.902Z,19.59
2022-10-15T06:21:14.806Z,19.87
2022-10-15T06:23:41.785Z,20.45
2022-10-15T06:26:10.195Z,20.87
2022-10-15T06:28:38.191Z,21.58
2022-10-15T06:31:06.020Z,21.28
2022-10-15T06:33:34.715Z,21.48
2022-10-15T06:36:06.853Z,22.26
2022-10-15T06:38:34.303Z,22.52
2022-10-15T06:41:05.236Z,22.37
2022-10-15T06:43:34.844Z,23.61
2022-10-15T06:46:03.951Z,23.40
2022-10-15T06:48:30.783Z,23.78
2022-10-15T06:50:59.762Z,22.75
2022-10-15T06:53:27.190Z,23.23
2022-10-15T06:56:00.923Z,22.97
2022-10-15T06:58:28.613Z,23.28
2022-10-15T07:01:01.718Z,23.26
2022-10-15T07:03:29.474Z,23.05
2022-10-15T07:05:56.342Z,22.38
2022-10-15T07:08:25.415Z,23.01
2022-10-15T07:10:52.346Z,22.60
2022-10-15T07:13:19.135Z,22.59
2022-10-15T07:15:46.581Z,22.71
2022-10-15T07:18:13.521Z,22.68
2022-10-15T07:20:40.428Z,22.80
2022-10-15T07:23:07.353Z,23.09
2022-10-15T07:25:34.703Z,22.11
2022-10-15T07:28:01.525Z,21.71
2022-10-15T07:30:28.858Z,22.27
2022-10-15T07:33:00.050Z,21.61
2022-10-15T07:35:28.203Z,19.55
2022-10-15T07:37:55.465Z,20.09
2022-10-15T07:40:22.557Z,18.86
2022-10-15T07:42:57.005Z,18.73
2022-10-15T07:45:25.152Z,18.44
2022-10-15T07:47:52.906Z,18.02
2022-10-15T07:50:22.724Z,18.17
2022-10-15T07:52:49.582Z,18.67
2022-10-15T07:55:16.453Z,19.16
2022-10-15T07:57:43.272Z,19.13
2022-10-15T08:00:10.797Z,19.74
2022-10-15T08:02:37.571Z,20.19
2022-10-15T08:05:04.602Z,19.76
2022-10-15T08:07:31.474Z,19.71
2022-10-15T08:09:58.345Z,19.59
2022-10-15T08:12:25.567Z,20.13
2022-10-15T08:14:52.892Z,19.41
2022-10-15T08:17:19.703Z,19.51
2022-10-15T08:19:46.514Z,19.91
2022-10-15T08:22:13.651Z,19.24
2022-10-15T08:24:40.493Z,19.67
2022-10-15T08:27:07.272Z,19.56
2022-10-15T08:29:34.318Z,20.43
2022-10-15T08:32:01.171Z,19.63
2022-10-15T08:34:28.039Z,20.29
2022-10-15T08:36:54.915Z,19.24
2022-10-15T08:39:21.733Z,20.12
2022-10-15T08:41:54.883Z,19.68
2022-10-15T08:44:34.029Z,20.42
2022-10-15T08:47:43.928Z,20.77
2022-10-15T08:50:26.312Z,19.97
2022-10-15T08:52:54.815Z,20.65
2022-10-15T08:57:51.034Z,19.79
2022-10-15T09:00:36.384Z,19.86
2022-10-15T09:03:10.073Z,20.68
2022-10-15T09:05:42.959Z,20.97
2022-10-15T09:08:33.832Z,20.58
2022-10-15T09:11:22.133Z,20.69
2022-10-15T09:13:49.148Z,20.92
2022-10-15T09:16:20.037Z,20.20
2022-10-15T09:18:49.550Z,20.96
2022-10-15T09:21:16.986Z,21.18
2022-10-15T09:23:44.866Z,20.76
2022-10-15T09:26:29.825Z,21.07
2022-10-15T09:29:12.133Z,21.27
2022-10-15T09:32:07.932Z,21.61
2022-10-15T09:34:41.886Z,21.33
2022-10-15T09:37:24.202Z,21.66
2022-10-15T09:40:14.752Z,21.30
2022-10-15T09:42:44.619Z,21.10
2022-10-15T09:45:14.008Z,20.90
2022-10-15T09:47:42.406Z,21.58
2022-10-15T09:50:12.885Z,21.18
2022-10-15T09:53:18.143Z,20.29
2022-10-15T09:56:15.341Z,20.68
2022-10-15T09:58:56.518Z,21.22
2022-10-15T10:01:27.855Z,20.55
2022-10-15T10:04:23.426Z,20.96
2022-10-15T10:06:56.932Z,21.20
2022-10-15T10:09:30.417Z,20.85
2022-10-15T10:12:01.404Z,20.61
2022-10-15T10:14:36.334Z,20.79
2022-10-15T10:17:19.927Z,21.25
2022-10-15T10:20:20.156Z,20.56
2022-10-15T10:23:23.258Z,20.53
2022-10-15T10:25:50.556Z,20.64
2022-10-15T10:28:27.147Z,20.91
2022-10-15T10:31:04.636Z,20.72
2022-10-15T10:33:52.565Z,21.28
2022-10-15T10:36:25.826Z,21.42
2022-10-15T10:39:02.482Z,21.30
2022-10-15T10:41:53.563Z,21.89
2022-10-15T10:44:41.932Z,22.23
2022-10-15T10:47:08.684Z,21.92
2022-10-15T10:49:38.370Z,21.76
2022-10-15T10:52:06.352Z,21.21
2022-10-15T10:54:33.745Z,21.81
2022-10-15T10:57:01.687Z,20.43
2022-10-15T10:59:41.637Z,20.44
2022-10-15T11:02:13.191Z,20.86
2022-10-15T11:04:40.869Z,20.80
2022-10-15T11:07:26.705Z,20.97
2022-10-15T11:10:07.489Z,20.86
2022-10-15T11:12:48.923Z,20.92
2022-10-15T11:15:15.948Z,21.38
2022-10-15T11:17:55.072Z,20.42
2022-10-15T11:20:50.039Z,20.85
2022-10-15T11:23:46.355Z,19.97
2022-10-15T11:27:11.395Z,20.22
2022-10-15T11:30:05.431Z,20.21
2022-10-15T11:33:01.790Z,20.22
2022-10-15T11:35:52.506Z,19.54
2022-10-15T11:38:44.325Z,20.28
2022-10-15T11:41:51.663Z,19.46
2022-10-15T11:44:29.470Z,19.78
2022-10-15T11:46:56.366Z,20.11
2022-10-15T11:49:51.124Z,19.64
2022-10-15T11:52:39.356Z,19.75
2022-10-15T11:55:15.455Z,19.62
2022-10-15T11:57:44.718Z,19.72
2022-10-15T12:00:31.594Z,19.09
2022-10-15T12:03:06.349Z,19.26
2022-10-15T12:05:43.483Z,19.28
2022-10-15T12:08:12.657Z,19.58
2022-10-15T12:10:42.232Z,19.48
2022-10-15T12:13:12.183Z,19.50
2022-10-15T12:15:50.758Z,19.29
2022-10-15T12:18:33.863Z,19.68
2022-10-15T12:21:00.881Z,19.51
2022-10-15T12:23:36.997Z,19.40
2022-10-15T12:26:34.395Z,19.52
2022-10-15T12:29:06.309Z,19.63
2022-10-15T12:31:56.497Z,19.55
2022-10-15T12:34:41.244Z,19.63
2022-10-15T12:37:17.713Z,19.38
2022-10-15T12:39:52.686Z,19.63
2022-10-15T12:42:32.878Z,19.82
2022-10-15T12:45:03.531Z,19.55
2022-10-15T12:47:50.642Z,19.45
2022-10-15T12:50:19.103Z,19.30
2022-10-15T12:52:59.236Z,19.48
2022-10-15T12:55:32.297Z,19.79
2022-10-15T12:57:59.135Z,19.21
2022-10-15T13:00:26.002Z,19.00
2022-10-15T13:02:55.190Z,19.38
2022-10-15T13:05:32.679Z,19.02
2022-10-15T13:08:12.424Z,19.22
2022-10-15T13:10:47.731Z,18.99
2022-10-15T13:13:22.736Z,19.26
2022-10-15T13:16:09.638Z,19.30
2022-10-15T13:18:36.862Z,18.84
2022-10-15T13:21:03.864Z,19.09
2022-10-15T13:23:33.636Z,18.72
2022-10-15T13:26:30.385Z,18.54
2022-10-15T13:28:58.311Z,18.55
2022-10-15T13:31:31.087Z,18.75
2022-10-15T13:34:20.837Z,18.87
2022-10-15T13:36:47.996Z,19.17
2022-10-15T13:42:15.952Z,19.01
2022-10-15T13:44:44.653Z,18.96
2022-10-15T13:47:41.282Z,18.99
2022-10-15T13:50:13.141Z,18.93
2022-10-15T13:52:43.050Z,18.83
2022-10-15T13:55:19.201Z,18.92
2022-10-15T13:57:48.586Z,18.91
2022-10-15T14:00:28.951Z,18.69
2022-10-15T14:03:22.501Z,18.61
2022-10-15T14:05:52.834Z,18.79
2022-10-15T14:08:27.801Z,18.53
2022-10-15T14:10:58.440Z,18.51
2022-10-15T14:13:26.371Z,18.57
2022-10-15T14:16:11.700Z,18.60
2022-10-15T14:18:44.024Z,18.61
2022-10-15T14:21:16.262Z,18.39
2022-10-15T14:23:45.516Z,18.50
2022-10-15T14:26:14.051Z,18.53
2022-10-15T14:28:41.869Z,18.49
2022-10-15T14:31:09.443Z,18.51
2022-10-15T14:33:43.541Z,18.49
2022-10-15T14:36:22.351Z,18.36
2022-10-15T14:38:51.382Z,18.15
2022-10-15T14:41:34.735Z,18.14
2022-10-15T14:44:06.362Z,18.30
2022-10-15T14:47:00.403Z,18.12
2022-10-15T14:49:35.018Z,18.04
2022-10-15T14:52:06.319Z,18.06
2022-10-15T14:54:39.753Z,18.15
2022-10-15T14:57:18.640Z,18.02
2022-10-15T14:59:45.575Z,17.89
2022-10-15T15:02:16.195Z,17.87
2022-10-15T15:04:46.147Z,17.93
2022-10-15T15:07:21.095Z,17.90
2022-10-15T15:09:49.224Z,17.90
2022-10-15T15:12:25.558Z,17.64
2022-10-15T15:14:55.132Z,17.67
2022-10-15T15:17:24.557Z,17.59
2022-10-15T15:19:54.688Z,17.58
2022-10-15T15:22:31.122Z,17.45
2022-10-15T15:25:00.321Z,17.50
2022-10-15T15:27:47.052Z,17.28
2022-10-15T15:30:20.342Z,17.42
2022-10-15T15:32:48.287Z,17.37
2022-10-15T15:35:52.803Z,17.40
2022-10-15T15:38:21.968Z,17.18
2022-10-15T15:40:50.052Z,17.22
2022-10-15T15:43:18.921Z,17.13
2022-10-15T15:45:47.033Z,17.06
2022-10-15T15:48:14.349Z,16.98
2022-10-15T15:50:41.466Z,16.91
2022-10-15T15:53:09.178Z,16.77
2022-10-15T15:55:35.970Z,16.74
2022-10-15T15:58:02.827Z,16.69
2022-10-15T16:00:29.728Z,16.59
2022-10-15T16:02:57.976Z,16.61
2022-10-15T16:05:25.534Z,16.42
2022-10-15T16:07:52.476Z,16.41
2022-10-15T16:10:19.312Z,16.41
2022-10-15T16:12:46.271Z,16.32
2022-10-15T16:15:14.804Z,16.40
2022-10-15T16:17:43.391Z,16.31
2022-10-15T16:20:11.098Z,16.30
2022-10-15T16:22:37.871Z,16.27
2022-10-15T16:25:05.080Z,16.23
2022-10-15T16:27:34.101Z,16.21
2022-10-15T16:30:02.083Z,16.09
2022-10-15T16:32:29.211Z,16.07
2022-10-15T16:34:56.178Z,16.04
2022-10-15T16:37:23.118Z,16.11
2022-10-15T16:39:50.157Z,16.07
2022-10-15T16:44:44.792Z,15.97
2022-10-15T16:47:11.603Z,15.87
2022-10-15T16:49:38.467Z,15.82
2022-10-15T16:52:05.443Z,15.82
2022-10-15T16:54:32.225Z,15.76
2022-10-15T16:56:59.239Z,15.79
2022-10-15T16:59:26.298Z,15.69
2022-10-15T17:01:53.169Z,15.71
2022-10-15T17:04:20.247Z,15.58
2022-10-15T17:06:47.230Z,15.59
2022-10-15T17:09:14.632Z,15.55
2022-10-15T17:11:43.194Z,15.53
2022-10-15T17:14:13.418Z,15.54
2022-10-15T17:16:46.267Z,15.53
2022-10-15T17:19:14.901Z,15.45
2022-10-15T17:21:42.524Z,15.47
2022-10-15T17:24:12.521Z,15.32
2022-10-15T17:26:41.775Z,15.15
2022-10-15T17:29:11.757Z,15.16
2022-10-15T17:31:39.203Z,15.19
2022-10-15T17:34:11.944Z,14.98
2022-10-15T17:36:45.423Z,15.00
2022-10-15T17:39:14.197Z,15.05
2022-10-15T17:41:41.502Z,15.01
2022-10-15T17:44:09.092Z,14.91
2022-10-15T17:46:35.963Z,14.93
2022-10-15T17:49:03.747Z,14.97
2022-10-15T17:51:32.223Z,14.94
2022-10-15T17:54:00.585Z,14.87
2022-10-15T17:56:33.023Z,14.87
2022-10-15T17:59:01.696Z,14.88
2022-10-15T18:01:56.738Z,14.68
2022-10-15T18:04:18.917Z,14.76
2022-10-15T18:06:45.814Z,14.90
2022-10-15T18:09:13.341Z,14.90
2022-10-15T18:11:40.324Z,14.86
2022-10-15T18:14:07.182Z,14.85
2022-10-15T18:16:34.094Z,14.82
2022-10-15T18:19:01.002Z,14.62
2022-10-15T18:21:28.653Z,14.68
2022-10-15T18:23:58.862Z,14.52
2022-10-15T18:26:26.166Z,14.66
2022-10-15T18:28:54.184Z,14.58
2022-10-15T18:31:22.459Z,14.53
2022-10-15T18:33:55.663Z,14.71
2022-10-15T18:36:26.065Z,14.75
2022-10-15T18:38:53.515Z,14.71
2022-10-15T18:41:29.195Z,14.60
2022-10-15T18:43:58.381Z,14.52
2022-10-15T18:46:27.690Z,14.47
2022-10-15T18:48:55.402Z,14.52
2022-10-15T18:51:23.092Z,14.48
2022-10-15T18:53:49.898Z,14.43
2022-10-15T18:56:17.323Z,14.47
2022-10-15T18:58:44.110Z,14.43
2022-10-15T19:01:29.618Z,14.36
2022-10-15T19:03:58.230Z,14.34
2022-10-15T19:06:28.723Z,14.31
2022-10-15T19:08:59.479Z,14.27
2022-10-15T19:11:26.670Z,14.30
2022-10-15T19:13:53.660Z,14.31
2022-10-15T19:16:20.633Z,14.09
2022-10-15T19:18:47.555Z,14.15
2022-10-15T19:21:14.424Z,14.28
2022-10-15T19:23:41.487Z,14.16
2022-10-15T19:26:09.951Z,14.29
2022-10-15T19:28:37.461Z,14.34
2022-10-15T19:31:07.183Z,14.26
2022-10-15T19:33:34.589Z,14.29
2022-10-15T19:36:01.589Z,14.32
2022-10-15T19:38:28.594Z,14.31
2022-10-15T19:40:55.475Z,14.34
2022-10-15T19:43:23.384Z,14.32
2022-10-15T19:45:50.562Z,14.26
2022-10-15T19:48:19.633Z,14.29
2022-10-15T19:50:47.517Z,14.21
2022-10-15T19:53:17.189Z,14.15
2022-10-15T19:55:54.566Z,14.09
2022-10-15T19:58:21.627Z,14.08
2022-10-15T20:00:52.392Z,14.00
2022-10-15T20:03:20.322Z,13.99
2022-10-15T20:05:48.093Z,14.04
2022-10-15T20:08:15.787Z,13.95
2022-10-15T20:10:48.483Z,13.92
2022-10-15T20:13:15.915Z,13.82
2022-10-15T20:15:44.325Z,13.88
2022-10-15T20:18:12.088Z,13.83
2022-10-15T20:20:41.033Z,13.74
2022-10-15T20:23:08.535Z,13.52
2022-10-15T20:25:38.403Z,13.42
2022-10-15T20:28:05.602Z,13.52
2022-10-15T20:30:32.540Z,13.37
2022-10-15T20:32:59.363Z,13.24
2022-10-15T20:35:26.484Z,13.32
2022-10-15T20:37:53.672Z,13.34
2022-10-15T20:40:20.530Z,13.30
2022-10-15T20:42:47.344Z,13.42
2022-10-15T20:45:14.703Z,13.33
2022-10-15T20:47:47.154Z,13.36
2022-10-15T20:50:21.504Z,13.30
2022-10-15T20:52:49.185Z,13.30
2022-10-15T20:55:16.296Z,13.19
2022-10-15T20:57:43.692Z,13.08
2022-10-15T21:00:11.140Z,13.19
2022-10-15T21:02:38.053Z,13.03
2022-10-15T21:05:05.471Z,13.03
2022-10-15T21:07:32.318Z,13.14
2022-10-15T21:09:59.277Z,13.20
2022-10-15T21:12:26.498Z,12.99
2022-10-15T21:14:53.670Z,12.92
2022-10-15T21:17:20.573Z,12.97
2022-10-15T21:19:50.345Z,12.91
2022-10-15T21:22:19.614Z,12.96
2022-10-15T21:24:46.516Z,12.83
2022-10-15T21:27:13.310Z,12.97
2022-10-15T21:29:40.502Z,12.97
2022-10-15T21:32:07.430Z,13.06
2022-10-15T21:34:34.398Z,12.95
2022-10-15T21:37:01.306Z,13.03
2022-10-15T21:39:28.238Z,13.05
2022-10-15T21:41:55.033Z,12.95
2022-10-15T21:44:21.851Z,12.97
2022-10-15T21:46:48.802Z,12.92
2022-10-15T21:49:15.699Z,12.96
2022-10-15T21:51:42.504Z,12.88
2022-10-15T21:54:09.780Z,12.86
2022-10-15T21:56:36.955Z,12.97
2022-10-15T21:59:04.457Z,12.96
2022-10-15T22:01:34.059Z,12.96
2022-10-15T22:04:04.164Z,12.97
2022-10-15T22:06:32.242Z,12.93
2022-10-15T22:09:00.031Z,12.99
2022-10-15T22:11:29.619Z,12.86
2022-10-15T22:13:59.801Z,12.91
2022-10-15T22:16:28.675Z,13.00
2022-10-15T22:18:56.530Z,12.97
2022-10-15T22:21:29.039Z,12.98
2022-10-15T22:24:00.785Z,12.85
2022-10-15T22:26:31.288Z,12.84
2022-10-15T22:29:00.102Z,12.83
2022-10-15T22:33:35.053Z,12.91
2022-10-15T22:36:06.073Z,12.93
2022-10-15T22:38:33.192Z,12.87
2022-10-15T22:41:01.441Z,12.79
2022-10-15T22:43:28.321Z,12.90
2022-10-15T22:46:00.014Z,12.96
2022-10-15T22:48:27.397Z,12.92
2022-10-15T22:50:58.037Z,12.88
2022-10-15T22:53:25.313Z,13.00
2022-10-15T22:56:18.950Z,12.92
2022-10-15T22:58:46.702Z,13.04
2022-10-15T23:01:20.745Z,13.10
2022-10-15T23:03:50.446Z,13.01
2022-10-15T23:06:18.384Z,12.99
2022-10-15T23:08:47.388Z,13.09
2022-10-15T23:11:18.180Z,13.14
2022-10-15T23:13:46.690Z,13.13
2022-10-15T23:16:18.545Z,13.12
2022-10-15T23:18:47.668Z,13.10
2022-10-15T23:21:18.205Z,12.95
2022-10-15T23:23:45.948Z,13.06
2022-10-15T23:26:16.774Z,12.96
2022-10-15T23:28:45.158Z,13.04
2022-10-15T23:31:16.869Z,13.05
2022-10-15T23:33:44.060Z,13.13
2022-10-15T23:36:11.024Z,13.18
2022-10-15T23:38:37.884Z,13.17
2022-10-15T23:41:09.095Z,13.08
2022-10-15T23:43:36.371Z,13.15
2022-10-15T23:46:04.097Z,13.08
2022-10-15T23:48:30.941Z,13.18
2022-10-15T23:51:00.908Z,13.11
2022-10-15T23:53:33.221Z,13.10
2022-10-15T23:56:03.006Z,13.11
2022-10-15T23:58:32.402Z,13.18
